Time;durP1;ratioP1;P1;durP2;ratioP2;P2;SDS_P1;SDS_P2;PMS_P1;PMS_P2;Temp;Humidity;BMP_temperature;BMP_pressure;BME280_temperature;BME280_humidity;BME280_pressure;Samples;Min_cycle;Max_cycle;Signal;HPM_P1;HPM_P2
2022/12/24 00:02:07;;;;;;;11.23;10.27;;;6.50;1.00;;;;;;6318012;27;20235;-55
2022/12/24 00:05:10;;;;;;;11.00;10.07;;;6.40;1.00;;;;;;6319444;27;20239;-56
2022/12/24 00:08:13;;;;;;;10.33;9.43;;;6.70;1.00;;;;;;6331041;28;20239;-56
2022/12/24 00:11:16;;;;;;;11.30;10.07;;;6.40;1.00;;;;;;6323945;28;20600;-56
2022/12/24 00:14:19;;;;;;;11.20;10.20;;;6.40;1.00;;;;;;6316595;28;20235;-59
2022/12/24 00:17:24;;;;;;;10.77;9.80;;;6.50;1.00;;;;;;6331829;27;20236;-55
2022/12/24 00:20:27;;;;;;;10.63;9.73;;;6.30;1.00;;;;;;6330218;27;20723;-57
2022/12/24 00:23:30;;;;;;;10.67;9.67;;;6.30;1.00;;;;;;6331406;28;20323;-56
2022/12/24 00:26:33;;;;;;;11.97;10.87;;;6.30;1.00;;;;;;6332066;28;20232;-55
2022/12/24 00:29:36;;;;;;;11.30;10.17;;;6.40;1.00;;;;;;6318950;28;20236;-56
2022/12/24 00:32:41;;;;;;;10.63;9.50;;;6.20;1.00;;;;;;6321315;27;20227;-56
2022/12/24 00:35:44;;;;;;;10.17;9.37;;;6.40;1.00;;;;;;6323923;28;20244;-55
2022/12/24 00:38:47;;;;;;;10.57;9.67;;;6.60;1.00;;;;;;6325638;27;20342;-55
2022/12/24 00:41:50;;;;;;;10.63;9.80;;;6.30;1.00;;;;;;6331160;28;20390;-56
2022/12/24 00:44:53;;;;;;;10.57;9.67;;;6.20;1.00;;;;;;6331165;27;20242;-55
2022/12/24 00:47:57;;;;;;;10.63;9.63;;;6.60;1.00;;;;;;6309856;28;20490;-55
2022/12/24 00:51:00;;;;;;;10.60;9.60;;;6.30;1.00;;;;;;6305902;28;20233;-56
2022/12/24 00:54:04;;;;;;;10.37;9.47;;;6.50;1.00;;;;;;6305691;28;20259;-56
2022/12/24 00:57:07;;;;;;;10.50;9.53;;;6.20;1.00;;;;;;6305036;28;20254;-56
2022/12/24 01:00:10;;;;;;;10.10;9.30;;;6.40;1.00;;;;;;6306348;28;20316;-56
2022/12/24 01:03:15;;;;;;;13.07;10.30;;;6.20;1.00;;;;;;6316606;27;20232;-57
2022/12/24 01:06:19;;;;;;;9.90;9.10;;;6.30;1.00;;;;;;6323411;28;20569;-56
2022/12/24 01:09:23;;;;;;;11.30;10.30;;;6.30;1.00;;;;;;6329923;28;20263;-55
2022/12/24 01:12:26;;;;;;;11.50;9.83;;;6.50;1.00;;;;;;6325509;27;20505;-56
2022/12/24 01:15:29;;;;;;;9.80;9.10;;;6.40;1.00;;;;;;6306029;28;20250;-55
2022/12/24 01:18:33;;;;;;;10.80;9.97;;;6.30;1.00;;;;;;6304814;28;20324;-56
2022/12/24 01:21:36;;;;;;;10.10;9.30;;;6.40;1.00;;;;;;6305613;28;20237;-55
2022/12/24 01:24:41;;;;;;;10.43;9.40;;;6.50;1.00;;;;;;6305831;28;20262;-57
2022/12/24 01:27:44;;;;;;;11.57;9.87;;;6.20;1.00;;;;;;6304886;28;20254;-56
2022/12/24 01:30:47;;;;;;;9.77;9.07;;;6.40;1.00;;;;;;6305053;28;20401;-55
2022/12/24 01:33:52;;;;;;;10.50;9.70;;;6.30;1.00;;;;;;6323506;28;20232;-56
2022/12/24 01:36:54;;;;;;;11.30;10.30;;;6.10;1.00;;;;;;6330195;28;20254;-56
2022/12/24 01:43:23;;;;;;;10.00;9.30;;;6.40;1.00;;;;;;6305006;28;20244;-55
2022/12/24 01:46:30;;;;;;;10.17;9.17;;;6.30;1.00;;;;;;6305714;28;20279;-54
2022/12/24 01:49:35;;;;;;;10.70;9.70;;;6.30;1.00;;;;;;6304489;28;20784;-54
2022/12/24 01:52:39;;;;;;;10.40;9.60;;;6.60;1.00;;;;;;6304442;28;20285;-60
2022/12/24 01:55:43;;;;;;;10.20;9.30;;;6.30;1.00;;;;;;6305907;28;20232;-56
2022/12/24 01:58:51;;;;;;;11.47;10.33;;;6.10;1.00;;;;;;6305116;28;20232;-55
2022/12/24 02:01:54;;;;;;;10.57;9.40;;;6.50;1.00;;;;;;6313767;27;20258;-55
2022/12/24 02:05:04;;;;;;;10.27;9.40;;;6.40;1.00;;;;;;6328458;28;20412;-56
2022/12/24 02:08:08;;;;;;;9.83;9.13;;;6.30;1.00;;;;;;6322336;28;20236;-55
2022/12/24 02:11:12;;;;;;;11.03;10.07;;;6.30;1.00;;;;;;6317459;28;20717;-57
2022/12/24 02:14:16;;;;;;;11.53;10.43;;;6.30;1.00;;;;;;6310179;28;20596;-57
2022/12/24 02:17:28;;;;;;;11.07;10.17;;;6.50;1.00;;;;;;6309966;28;20245;-56
2022/12/24 02:21:04;;;;;;;10.40;9.60;;;6.40;1.00;;;;;;6310153;28;20379;-56
2022/12/24 02:24:44;;;;;;;11.53;10.47;;;6.40;1.00;;;;;;6309606;28;20301;-56
2022/12/24 02:27:57;;;;;;;11.33;10.33;;;6.70;1.00;;;;;;6309582;28;20255;-56
2022/12/24 02:31:05;;;;;;;12.17;10.90;;;6.20;1.00;;;;;;6322957;28;20316;-55
2022/12/24 02:34:16;;;;;;;12.77;11.43;;;6.30;1.00;;;;;;6334615;27;20285;-56
2022/12/24 02:37:25;;;;;;;12.23;11.03;;;6.40;1.00;;;;;;6327391;27;20661;-56
2022/12/24 02:40:34;;;;;;;10.67;9.60;;;6.60;1.00;;;;;;6320948;28;20232;-56
2022/12/24 02:43:42;;;;;;;12.47;11.27;;;6.50;1.00;;;;;;6309470;28;20410;-54
2022/12/24 02:46:47;;;;;;;12.13;10.27;;;6.40;1.00;;;;;;6309316;28;20259;-56
2022/12/24 02:49:50;;;;;;;12.60;10.60;;;6.40;1.00;;;;;;6308514;28;20885;-55
2022/12/24 02:52:53;;;;;;;11.73;10.63;;;6.50;1.00;;;;;;6309232;28;20237;-56
2022/12/24 02:56:12;;;;;;;13.30;11.13;;;6.70;1.00;;;;;;6298614;28;20239;-55
2022/12/24 02:59:36;;;;;;;12.03;10.97;;;6.40;1.00;;;;;;6308014;28;20229;-55
2022/12/24 03:02:53;;;;;;;12.97;11.77;;;6.60;1.00;;;;;;6319938;27;20248;-54
2022/12/24 03:06:03;;;;;;;11.27;10.23;;;6.70;1.00;;;;;;6325332;28;20592;-57
2022/12/24 03:09:14;;;;;;;13.10;11.90;;;6.40;1.00;;;;;;6333080;28;20232;-55
2022/12/24 03:12:22;;;;;;;11.93;10.83;;;6.20;1.00;;;;;;6333302;28;20359;-55
2022/12/24 03:15:27;;;;;;;12.27;11.27;;;6.70;1.00;;;;;;6332361;28;20232;-55
2022/12/24 03:18:32;;;;;;;12.30;11.20;;;6.50;1.00;;;;;;6313339;28;20411;-56
2022/12/24 03:21:41;;;;;;;13.07;11.57;;;6.50;1.00;;;;;;6310002;28;20232;-56
2022/12/24 03:24:44;;;;;;;12.57;11.50;;;6.40;1.00;;;;;;6322179;28;20307;-55
2022/12/24 03:27:47;;;;;;;12.00;10.93;;;6.30;1.00;;;;;;6333733;28;20236;-55
2022/12/24 03:30:50;;;;;;;12.50;11.33;;;6.30;1.00;;;;;;6333460;27;20235;-55
2022/12/24 03:33:55;;;;;;;13.00;11.70;;;6.40;1.00;;;;;;6328435;27;20254;-56
2022/12/24 03:36:58;;;;;;;13.13;11.83;;;6.20;1.00;;;;;;6320035;28;20240;-56
2022/12/24 03:40:01;;;;;;;14.47;12.80;;;6.30;1.00;;;;;;6319348;27;20728;-56
2022/12/24 03:43:04;;;;;;;14.27;12.27;;;6.50;1.00;;;;;;6307758;28;20474;-52
2022/12/24 03:46:07;;;;;;;13.90;12.53;;;6.20;1.00;;;;;;6307986;28;20331;-55
2022/12/24 03:49:12;;;;;;;13.77;12.27;;;6.50;1.00;;;;;;6307615;28;20241;-56
2022/12/24 03:52:15;;;;;;;14.57;12.17;;;6.20;1.00;;;;;;6308178;28;20233;-55
2022/12/24 03:55:17;;;;;;;15.57;12.53;;;6.30;1.00;;;;;;6307429;28;20358;-56
2022/12/24 03:58:20;;;;;;;13.33;12.07;;;6.30;1.00;;;;;;6303528;28;20237;-56
2022/12/24 04:01:23;;;;;;;12.67;11.37;;;6.40;1.00;;;;;;6312368;27;20232;-55
2022/12/24 04:04:28;;;;;;;13.30;11.97;;;6.50;1.00;;;;;;6326417;28;20691;-55
2022/12/24 04:07:32;;;;;;;14.17;12.27;;;6.40;1.00;;;;;;6329960;28;20250;-55
2022/12/24 04:10:35;;;;;;;14.77;11.90;;;6.40;1.00;;;;;;6331606;28;20254;-56
2022/12/24 04:13:38;;;;;;;14.67;11.97;;;6.50;1.00;;;;;;6332012;27;20236;-56
2022/12/24 04:16:41;;;;;;;13.13;11.83;;;6.40;1.00;;;;;;6332067;27;20243;-55
2022/12/24 04:19:45;;;;;;;12.73;11.43;;;6.30;1.00;;;;;;6329664;27;20777;-55
2022/12/24 04:22:48;;;;;;;12.30;11.10;;;6.10;1.00;;;;;;6306898;28;20232;-56
2022/12/24 04:25:51;;;;;;;13.03;11.77;;;6.30;1.00;;;;;;6306955;28;20304;-55
2022/12/24 04:28:54;;;;;;;13.37;12.07;;;6.50;1.00;;;;;;6306313;28;20247;-55
2022/12/24 04:31:57;;;;;;;13.40;12.00;;;6.30;1.00;;;;;;6298238;28;20243;-55
2022/12/24 04:35:02;;;;;;;12.77;11.57;;;6.30;1.00;;;;;;6328393;27;20782;-57
2022/12/24 04:38:05;;;;;;;12.77;11.07;;;6.20;1.00;;;;;;6325243;27;20236;-57
2022/12/24 04:41:10;;;;;;;11.60;10.60;;;6.10;1.00;;;;;;6327224;27;20239;-56
2022/12/24 04:44:16;;;;;;;12.07;10.83;;;6.20;1.00;;;;;;6330867;27;20220;-54
2022/12/24 04:47:19;;;;;;;11.27;10.27;;;6.20;1.00;;;;;;6329657;27;20250;-55
2022/12/24 04:50:23;;;;;;;13.63;11.67;;;6.40;1.00;;;;;;6329825;27;20232;-55
2022/12/24 04:53:26;;;;;;;12.27;11.17;;;6.20;1.00;;;;;;6330509;28;20228;-56
2022/12/24 04:56:31;;;;;;;12.83;11.20;;;6.30;1.00;;;;;;6330396;27;20284;-55
2022/12/24 04:59:34;;;;;;;13.03;11.73;;;6.40;1.00;;;;;;6330302;27;20257;-55
2022/12/24 05:02:37;;;;;;;13.13;11.77;;;6.40;1.00;;;;;;6330250;27;20232;-55
2022/12/24 05:05:42;;;;;;;12.63;11.43;;;6.30;1.00;;;;;;6328769;28;20232;-55
2022/12/24 05:08:45;;;;;;;12.53;11.27;;;6.20;1.00;;;;;;6325965;28;20541;-55
2022/12/24 05:11:48;;;;;;;13.17;11.90;;;6.00;1.00;;;;;;6322040;28;20250;-56
2022/12/24 05:14:51;;;;;;;12.20;11.00;;;6.30;1.00;;;;;;6329703;28;20527;-56
2022/12/24 05:17:54;;;;;;;12.90;11.70;;;6.10;1.00;;;;;;6320806;28;20606;-56
2022/12/24 05:20:58;;;;;;;13.03;11.63;;;6.10;1.00;;;;;;6329760;27;20239;-56
2022/12/24 05:27:22;;;;;;;13.03;11.73;;;6.20;1.00;;;;;;6327777;27;20239;-55
2022/12/24 05:30:25;;;;;;;13.23;12.03;;;6.10;1.00;;;;;;6330010;27;20231;-56
2022/12/24 05:33:28;;;;;;;12.93;11.50;;;6.10;1.00;;;;;;6329518;27;20232;-56
2022/12/24 05:36:33;;;;;;;13.33;12.03;;;6.10;1.00;;;;;;6321148;28;20229;-56
2022/12/24 05:39:36;;;;;;;12.67;11.37;;;6.30;1.00;;;;;;6327108;27;20232;-56
2022/12/24 05:42:39;;;;;;;14.27;12.77;;;6.20;1.00;;;;;;6322945;28;20808;-57
2022/12/24 05:45:42;;;;;;;13.30;12.00;;;5.90;1.00;;;;;;6332808;27;20235;-54
2022/12/24 05:48:45;;;;;;;13.83;12.53;;;6.20;1.00;;;;;;6332502;27;20259;-56
2022/12/24 05:51:49;;;;;;;13.50;12.20;;;6.00;1.00;;;;;;6333859;27;20439;-57
2022/12/24 05:54:52;;;;;;;13.20;11.90;;;6.20;1.00;;;;;;6334572;27;20632;-56
2022/12/24 05:57:55;;;;;;;14.27;12.57;;;6.00;1.00;;;;;;6329706;27;20320;-55
2022/12/24 06:00:58;;;;;;;13.80;12.40;;;6.40;1.00;;;;;;6334732;27;20251;-56
2022/12/24 06:04:02;;;;;;;14.33;12.93;;;6.10;1.00;;;;;;6325455;27;20244;-56
2022/12/24 06:07:07;;;;;;;14.60;13.10;;;6.40;1.00;;;;;;6331866;27;20422;-54
2022/12/24 06:10:10;;;;;;;12.93;11.73;;;6.10;1.00;;;;;;6334168;27;20238;-56
2022/12/24 06:13:13;;;;;;;12.87;11.57;;;6.20;1.00;;;;;;6332442;28;20227;-55
2022/12/24 06:16:19;;;;;;;14.37;13.00;;;6.20;1.00;;;;;;6331834;27;20720;-55
2022/12/24 06:19:23;;;;;;;13.90;12.60;;;6.30;1.00;;;;;;6333503;27;20302;-54
2022/12/24 06:22:27;;;;;;;13.43;12.03;;;6.10;1.00;;;;;;6333582;27;20232;-55
2022/12/24 06:25:30;;;;;;;14.10;12.53;;;6.00;1.00;;;;;;6332747;27;20611;-54
2022/12/24 06:28:35;;;;;;;14.40;13.00;;;6.10;1.00;;;;;;6328906;28;20246;-56
2022/12/24 06:31:38;;;;;;;14.30;12.87;;;6.00;1.00;;;;;;6329158;27;20236;-55
2022/12/24 06:34:42;;;;;;;15.83;12.97;;;5.80;1.00;;;;;;6333917;27;20255;-55
2022/12/24 06:37:46;;;;;;;13.53;12.23;;;6.00;1.00;;;;;;6334429;27;20638;-55
2022/12/24 06:40:49;;;;;;;13.67;12.40;;;6.00;1.00;;;;;;6331830;28;20247;-56
2022/12/24 06:43:53;;;;;;;15.50;12.77;;;6.20;1.00;;;;;;6338862;27;20242;-57
2022/12/24 06:46:56;;;;;;;14.33;12.90;;;5.90;1.00;;;;;;6338762;27;20236;-55
2022/12/24 06:49:59;;;;;;;12.00;10.80;;;5.90;1.00;;;;;;6334645;27;20240;-56
2022/12/24 06:53:03;;;;;;;13.90;12.60;;;6.10;1.00;;;;;;6336042;28;20266;-56
2022/12/24 06:56:08;;;;;;;14.83;12.80;;;6.00;1.00;;;;;;6333621;28;20239;-56
2022/12/24 06:59:11;;;;;;;14.23;12.73;;;6.20;1.00;;;;;;6325527;27;20743;-55
2022/12/24 07:02:14;;;;;;;15.30;12.40;;;5.80;1.00;;;;;;6331321;27;20244;-56
2022/12/24 07:05:17;;;;;;;12.73;11.53;;;5.90;1.00;;;;;;6330979;27;20407;-55
2022/12/24 07:08:22;;;;;;;13.20;11.90;;;6.20;1.00;;;;;;6328984;28;20240;-54
2022/12/24 07:11:25;;;;;;;17.47;13.03;;;5.90;1.00;;;;;;6332903;27;20228;-56
2022/12/24 07:14:28;;;;;;;14.30;12.80;;;5.80;1.00;;;;;;6333195;27;20428;-56
2022/12/24 07:17:31;;;;;;;13.10;11.80;;;6.00;1.00;;;;;;6332885;28;20401;-52
2022/12/24 07:20:34;;;;;;;16.30;13.63;;;5.90;1.00;;;;;;6331989;28;20232;-55
2022/12/24 07:23:39;;;;;;;14.83;12.30;;;5.80;1.00;;;;;;6331171;27;20239;-56
2022/12/24 07:26:42;;;;;;;14.37;12.80;;;6.00;1.00;;;;;;6332443;27;20249;-54
2022/12/24 07:29:45;;;;;;;17.10;13.63;;;6.20;1.00;;;;;;6331488;28;20236;-55
2022/12/24 07:32:48;;;;;;;14.27;12.83;;;5.80;1.00;;;;;;6333898;27;20235;-57
2022/12/24 07:35:59;;;;;;;17.93;13.33;;;5.90;1.00;;;;;;6325642;28;20235;-55
2022/12/24 07:39:03;;;;;;;12.90;11.57;;;6.00;1.00;;;;;;6328649;27;20251;-55
2022/12/24 07:42:07;;;;;;;14.30;12.80;;;6.00;1.00;;;;;;6329798;28;20378;-55
2022/12/24 07:45:11;;;;;;;14.37;12.83;;;6.00;1.00;;;;;;6332389;27;20744;-55
2022/12/24 07:48:14;;;;;;;14.70;13.10;;;6.10;1.00;;;;;;6331822;27;20415;-55
2022/12/24 07:51:17;;;;;;;14.23;12.33;;;6.00;1.00;;;;;;6330771;27;20237;-54
2022/12/24 07:54:21;;;;;;;16.13;14.47;;;6.00;1.00;;;;;;6331790;28;20239;-56
2022/12/24 07:57:24;;;;;;;13.93;12.43;;;5.80;1.00;;;;;;6331765;27;20240;-56
2022/12/24 08:00:27;;;;;;;14.33;12.83;;;5.90;1.00;;;;;;6328692;27;20751;-56
2022/12/24 08:03:30;;;;;;;14.67;13.10;;;6.00;1.00;;;;;;6326692;27;20329;-57
2022/12/24 08:06:33;;;;;;;13.83;11.83;;;6.10;1.00;;;;;;6330697;28;20240;-55
2022/12/24 08:09:38;;;;;;;13.60;11.97;;;5.80;1.00;;;;;;6328996;27;20838;-58
2022/12/24 08:12:41;;;;;;;13.63;12.33;;;5.90;1.00;;;;;;6324191;27;20323;-56
2022/12/24 08:15:45;;;;;;;14.57;11.77;;;6.10;1.00;;;;;;6332092;27;20227;-56
2022/12/24 08:18:48;;;;;;;14.03;12.60;;;6.30;1.00;;;;;;6326600;27;20716;-56
2022/12/24 08:21:51;;;;;;;14.13;12.73;;;6.20;1.00;;;;;;6328558;27;20243;-56
2022/12/24 08:24:55;;;;;;;14.10;12.67;;;6.10;1.00;;;;;;6331101;27;20239;-57
2022/12/24 08:27:58;;;;;;;14.80;13.23;;;5.90;1.00;;;;;;6326281;28;20239;-56
2022/12/24 08:31:01;;;;;;;16.93;13.17;;;6.00;1.00;;;;;;6330571;27;20247;-54
2022/12/24 08:34:05;;;;;;;14.33;12.20;;;6.10;1.00;;;;;;6329863;28;20240;-56
2022/12/24 08:37:09;;;;;;;13.93;12.47;;;6.10;1.00;;;;;;6323036;27;20240;-56
2022/12/24 08:40:14;;;;;;;12.47;11.27;;;6.20;1.00;;;;;;6330863;28;20624;-56
2022/12/24 08:43:17;;;;;;;15.20;12.47;;;6.10;1.00;;;;;;6331374;27;20232;-56
2022/12/24 08:46:20;;;;;;;13.70;12.30;;;6.30;1.00;;;;;;6325454;28;20227;-56
2022/12/24 08:49:23;;;;;;;14.13;12.70;;;6.10;1.00;;;;;;6330808;27;20262;-61
2022/12/24 08:52:26;;;;;;;14.57;13.07;;;6.20;1.00;;;;;;6330137;27;20223;-54
2022/12/24 08:55:31;;;;;;;13.50;12.10;;;6.40;1.00;;;;;;6326550;27;20250;-56
2022/12/24 08:58:34;;;;;;;13.97;12.30;;;6.10;1.00;;;;;;6329726;27;20239;-56
2022/12/24 09:01:37;;;;;;;14.40;12.90;;;6.10;1.00;;;;;;6285106;28;20232;-56
2022/12/24 09:04:41;;;;;;;15.63;13.10;;;6.40;1.00;;;;;;6294440;28;20755;-55
2022/12/24 09:07:44;;;;;;;12.67;11.37;;;6.20;1.00;;;;;;6296354;27;20621;-56
2022/12/24 09:10:48;;;;;;;13.77;12.37;;;6.10;1.00;;;;;;6293115;28;20549;-54
2022/12/24 09:13:51;;;;;;;13.47;12.07;;;6.30;1.00;;;;;;6279988;28;20263;-56
2022/12/24 09:16:54;;;;;;;14.17;12.60;;;6.30;1.00;;;;;;6287510;28;20615;-55
2022/12/24 09:19:57;;;;;;;15.33;13.53;;;6.20;1.00;;;;;;6276346;28;20295;-57
2022/12/24 09:23:00;;;;;;;14.07;12.53;;;6.20;1.00;;;;;;6300222;28;20601;-56
2022/12/24 09:26:06;;;;;;;13.87;12.43;;;6.20;1.00;;;;;;6286838;28;20312;-56
2022/12/24 09:29:11;;;;;;;12.87;11.57;;;6.10;1.00;;;;;;6278300;28;20732;-56
2022/12/24 09:32:14;;;;;;;15.73;12.40;;;6.10;1.00;;;;;;6280155;28;20359;-56
2022/12/24 09:35:17;;;;;;;14.67;13.20;;;6.10;1.00;;;;;;6278634;28;20225;-54
2022/12/24 09:38:21;;;;;;;14.30;12.80;;;6.60;1.00;;;;;;6293540;28;20232;-55
2022/12/24 09:41:35;;;;;;;16.60;13.47;;;6.50;1.00;;;;;;6287559;28;20237;-56
2022/12/24 09:44:43;;;;;;;13.77;12.20;;;6.40;1.00;;;;;;6300621;28;20239;-56
2022/12/24 09:47:50;;;;;;;15.90;13.80;;;6.40;1.00;;;;;;6300468;28;20245;-55
2022/12/24 09:50:56;;;;;;;14.87;13.37;;;6.60;1.00;;;;;;6298509;28;20224;-55
2022/12/24 09:54:04;;;;;;;16.70;13.93;;;6.30;1.00;;;;;;6284141;28;20229;-54
2022/12/24 09:57:15;;;;;;;16.23;14.00;;;6.40;1.00;;;;;;6301858;28;20263;-54
2022/12/24 10:00:24;;;;;;;17.13;14.23;;;6.40;1.00;;;;;;6300614;28;20260;-55
2022/12/24 10:03:27;;;;;;;15.67;14.03;;;6.50;1.00;;;;;;6285654;28;20236;-55
2022/12/24 10:06:37;;;;;;;19.07;15.67;;;6.50;1.00;;;;;;6294911;28;20274;-62
2022/12/24 10:09:48;;;;;;;17.00;14.40;;;6.50;1.00;;;;;;6303205;28;20233;-57
2022/12/24 10:13:01;;;;;;;18.33;14.87;;;6.40;1.00;;;;;;6298912;28;20736;-62
2022/12/24 10:16:14;;;;;;;16.40;14.70;;;6.60;1.00;;;;;;6306959;28;20759;-56
2022/12/24 10:19:21;;;;;;;17.97;15.00;;;6.40;1.00;;;;;;6303741;28;20237;-54
2022/12/24 10:22:28;;;;;;;16.93;13.60;;;6.30;1.00;;;;;;6305688;28;20249;-55
2022/12/24 10:25:37;;;;;;;17.87;15.97;;;6.50;1.00;;;;;;6284224;28;20241;-54
2022/12/24 10:28:47;;;;;;;17.37;15.53;;;6.50;1.00;;;;;;6296132;28;20241;-55
2022/12/24 10:31:56;;;;;;;17.47;15.23;;;6.90;1.00;;;;;;6282878;28;20240;-55
2022/12/24 10:35:03;;;;;;;21.47;17.03;;;6.60;1.00;;;;;;6276384;28;20615;-54
2022/12/24 10:38:09;;;;;;;21.87;17.90;;;6.70;1.00;;;;;;6308092;28;20341;-55
2022/12/24 10:41:14;;;;;;;20.90;16.90;;;6.90;1.00;;;;;;6293467;28;20732;-56
2022/12/24 10:44:22;;;;;;;19.93;16.57;;;7.00;1.00;;;;;;6288431;28;20244;-56
2022/12/24 10:47:26;;;;;;;19.63;16.97;;;6.90;1.00;;;;;;6294958;28;20390;-56
2022/12/24 10:50:34;;;;;;;22.63;16.70;;;6.90;1.00;;;;;;6304607;28;20225;-56
2022/12/24 10:53:44;;;;;;;20.30;16.47;;;7.10;1.00;;;;;;6281287;28;20233;-55
2022/12/24 10:56:49;;;;;;;18.47;15.57;;;7.00;1.00;;;;;;6294468;28;20727;-55
2022/12/24 10:59:55;;;;;;;16.37;14.23;;;7.00;1.00;;;;;;6286532;28;20324;-54
2022/12/24 11:03:22;;;;;;;14.97;13.47;;;7.10;1.00;;;;;;6278333;28;20245;-56
2022/12/24 11:06:25;;;;;;;16.37;13.83;;;7.30;1.00;;;;;;6296548;28;20274;-54
2022/12/24 11:09:30;;;;;;;13.87;12.57;;;7.30;1.00;;;;;;6294546;28;20460;-56
2022/12/24 11:12:37;;;;;;;13.33;12.03;;;7.30;1.00;;;;;;6287456;28;20230;-55
2022/12/24 11:15:41;;;;;;;13.40;12.10;;;7.40;1.00;;;;;;6289802;28;20255;-56
2022/12/24 11:18:47;;;;;;;15.10;13.60;;;7.30;1.00;;;;;;6303078;28;20237;-57
2022/12/24 11:22:00;;;;;;;13.37;11.77;;;7.30;1.00;;;;;;6292463;28;20246;-55
2022/12/24 11:25:07;;;;;;;13.50;12.20;;;7.50;1.00;;;;;;6301454;28;20245;-57
2022/12/24 11:28:27;;;;;;;12.60;11.30;;;7.40;1.00;;;;;;6307141;28;20795;-54
2022/12/24 11:31:36;;;;;;;12.43;11.23;;;7.50;1.00;;;;;;6288332;28;20477;-54
2022/12/24 11:34:43;;;;;;;13.13;11.83;;;7.50;1.00;;;;;;6289016;28;20236;-56
2022/12/24 11:37:47;;;;;;;12.40;11.30;;;7.60;1.00;;;;;;6284443;28;20251;-56
2022/12/24 11:40:58;;;;;;;13.23;12.07;;;7.60;1.00;;;;;;6284495;28;20237;-57
2022/12/24 11:44:05;;;;;;;12.47;11.27;;;7.60;1.00;;;;;;6295688;28;20247;-56
2022/12/24 11:47:14;;;;;;;14.07;12.57;;;7.60;1.00;;;;;;6307398;28;20244;-56
2022/12/24 11:50:23;;;;;;;11.67;10.63;;;7.70;1.00;;;;;;6307370;28;20224;-56
2022/12/24 11:53:30;;;;;;;13.10;11.80;;;7.70;1.00;;;;;;6306431;28;20233;-55
2022/12/24 11:56:37;;;;;;;10.93;9.97;;;7.80;1.00;;;;;;6301910;28;20236;-55
2022/12/24 11:59:44;;;;;;;11.90;10.90;;;7.90;1.00;;;;;;6297212;28;20243;-56
2022/12/24 12:02:51;;;;;;;9.60;8.90;;;7.80;1.00;;;;;;6302045;28;20241;-55
2022/12/24 12:05:56;;;;;;;10.07;9.27;;;7.80;1.00;;;;;;6295872;28;20315;-53
2022/12/24 12:09:02;;;;;;;10.37;9.63;;;7.90;1.00;;;;;;6301996;28;20247;-55
2022/12/24 12:12:07;;;;;;;10.00;9.30;;;7.80;1.00;;;;;;6295623;28;20338;-55
2022/12/24 12:15:14;;;;;;;11.33;10.23;;;7.90;1.00;;;;;;6306159;28;20498;-56
2022/12/24 12:18:24;;;;;;;11.30;10.07;;;7.80;1.00;;;;;;6306386;28;20568;-55
2022/12/24 12:21:33;;;;;;;10.13;9.33;;;7.90;1.00;;;;;;6305969;28;20236;-55
2022/12/24 12:24:39;;;;;;;10.43;9.63;;;7.90;1.00;;;;;;6282123;28;20384;-56
2022/12/24 12:27:45;;;;;;;9.83;9.03;;;8.00;1.00;;;;;;6286382;28;20242;-55
2022/12/24 12:30:59;;;;;;;10.33;9.43;;;8.00;1.00;;;;;;6288494;28;20242;-56
2022/12/24 12:34:10;;;;;;;10.20;9.40;;;8.10;1.00;;;;;;6301531;28;20233;-56
2022/12/24 12:37:18;;;;;;;10.33;9.33;;;8.20;1.00;;;;;;6291421;28;20230;-56
2022/12/24 12:40:25;;;;;;;9.67;8.90;;;8.20;1.00;;;;;;6275049;28;20225;-55
2022/12/24 12:43:40;;;;;;;9.83;9.10;;;8.40;1.00;;;;;;6296717;28;20245;-55
2022/12/24 12:46:56;;;;;;;14.83;8.47;;;8.50;1.00;;;;;;6300459;28;20236;-56
2022/12/24 12:50:08;;;;;;;10.13;9.33;;;8.70;1.00;;;;;;6283544;28;20294;-56
2022/12/24 12:53:38;;;;;;;9.17;8.27;;;8.50;1.00;;;;;;6294048;28;20371;-56
2022/12/24 12:56:45;;;;;;;11.10;8.57;;;8.50;1.00;;;;;;6304574;28;20619;-57
2022/12/24 12:59:54;;;;;;;8.83;7.47;;;8.50;1.00;;;;;;6294779;28;20797;-55
2022/12/24 13:03:21;;;;;;;13.23;8.13;;;8.50;1.00;;;;;;6282431;28;20845;-55
2022/12/24 13:06:57;;;;;;;9.30;8.37;;;8.50;1.00;;;;;;6283019;28;20367;-55
2022/12/24 13:10:32;;;;;;;13.17;8.33;;;8.50;1.00;;;;;;6260453;28;20612;-55
2022/12/24 13:14:01;;;;;;;9.00;7.93;;;8.50;1.00;;;;;;6287687;28;20419;-55
2022/12/24 13:17:24;;;;;;;8.40;7.30;;;8.60;1.00;;;;;;6283226;28;20238;-55
2022/12/24 13:20:29;;;;;;;9.90;8.70;;;8.60;1.00;;;;;;6285630;28;20232;-56
2022/12/24 13:23:32;;;;;;;13.37;7.97;;;8.60;1.00;;;;;;6281375;28;20328;-56
2022/12/24 13:26:37;;;;;;;10.47;8.23;;;8.60;1.00;;;;;;6282389;28;20238;-55
2022/12/24 13:29:43;;;;;;;13.73;8.10;;;8.60;1.00;;;;;;6297308;28;20243;-56
2022/12/24 13:32:49;;;;;;;13.97;8.13;;;8.60;1.00;;;;;;6290492;28;20240;-56
2022/12/24 13:36:00;;;;;;;11.00;7.83;;;8.70;1.00;;;;;;6280485;28;20243;-56
2022/12/24 13:39:03;;;;;;;11.43;8.13;;;8.70;1.00;;;;;;6291162;28;20733;-58
2022/12/24 13:42:07;;;;;;;12.60;7.80;;;8.70;1.00;;;;;;6304095;28;20237;-56
2022/12/24 13:45:41;;;;;;;13.33;7.63;;;8.70;1.00;;;;;;6306021;28;20279;-56
2022/12/24 13:48:45;;;;;;;12.57;7.53;;;8.70;1.00;;;;;;6285636;28;20236;-56
2022/12/24 13:51:49;;;;;;;14.93;8.37;;;8.60;1.00;;;;;;6305119;28;20236;-56
2022/12/24 13:55:13;;;;;;;16.67;8.53;;;8.60;1.00;;;;;;6287914;28;20815;-56
2022/12/24 13:58:20;;;;;;;16.53;8.27;;;8.60;1.00;;;;;;6288858;28;20584;-56
2022/12/24 14:01:34;;;;;;;14.20;7.83;;;8.60;1.00;;;;;;6297705;28;20240;-55
2022/12/24 14:04:41;;;;;;;15.13;7.57;;;8.60;1.00;;;;;;6302339;28;20264;-55
2022/12/24 14:07:49;;;;;;;21.60;9.07;;;8.60;1.00;;;;;;6306474;28;20562;-56
2022/12/24 14:11:09;;;;;;;16.93;9.03;;;8.60;1.00;;;;;;6306250;28;20229;-55
2022/12/24 14:14:27;;;;;;;18.73;8.10;;;8.60;1.00;;;;;;6299250;28;20237;-56
2022/12/24 14:17:32;;;;;;;17.47;7.97;;;8.60;1.00;;;;;;6294838;28;20228;-58
2022/12/24 14:20:37;;;;;;;24.13;8.30;;;8.60;1.00;;;;;;6308998;28;20237;-57
2022/12/24 14:23:51;;;;;;;19.07;8.00;;;8.60;1.00;;;;;;6307707;28;20244;-56
2022/12/24 14:26:58;;;;;;;17.60;7.77;;;8.60;1.00;;;;;;6308892;28;20248;-55
2022/12/24 14:30:08;;;;;;;22.27;8.00;;;8.60;1.00;;;;;;6286611;28;20248;-56
2022/12/24 14:33:29;;;;;;;17.53;7.87;;;8.60;1.00;;;;;;6303089;28;20737;-56
2022/12/24 14:36:33;;;;;;;22.10;7.90;;;8.60;1.00;;;;;;6284595;28;20475;-56
2022/12/24 14:39:38;;;;;;;16.53;7.67;;;8.60;1.00;;;;;;6279029;28;20642;-55
2022/12/24 14:42:49;;;;;;;21.43;7.73;;;8.60;1.00;;;;;;6292761;28;20236;-53
2022/12/24 14:46:03;;;;;;;23.13;8.23;;;8.60;1.00;;;;;;6288949;28;20229;-56
2022/12/24 14:49:17;;;;;;;25.00;8.63;;;8.50;1.00;;;;;;6300026;28;20302;-55
2022/12/24 14:52:30;;;;;;;19.10;7.90;;;8.70;1.00;;;;;;6293410;28;20229;-55
2022/12/24 14:55:53;;;;;;;18.27;7.60;;;8.50;1.00;;;;;;6285346;28;20414;-56
2022/12/24 14:59:03;;;;;;;23.23;8.90;;;8.50;1.00;;;;;;6299155;28;20244;-55
2022/12/24 15:02:29;;;;;;;32.47;10.20;;;8.50;1.00;;;;;;6301567;28;20233;-56
2022/12/24 15:05:32;;;;;;;22.23;11.77;;;8.50;1.00;;;;;;6300201;28;20233;-56
2022/12/24 15:08:39;;;;;;;17.00;9.50;;;8.50;1.00;;;;;;6297800;27;20252;-55
2022/12/24 15:11:44;;;;;;;20.60;8.37;;;8.50;1.00;;;;;;6298596;28;20241;-55
2022/12/24 15:14:47;;;;;;;19.93;9.53;;;8.50;1.00;;;;;;6300532;28;20484;-57
2022/12/24 15:17:52;;;;;;;43.27;23.37;;;8.50;1.00;;;;;;6306613;28;20611;-56
2022/12/24 15:20:59;;;;;;;23.53;9.57;;;8.40;1.00;;;;;;6306887;28;20259;-56
2022/12/24 15:24:23;;;;;;;26.23;10.10;;;8.40;1.00;;;;;;6299206;28;20245;-55
2022/12/24 15:27:32;;;;;;;23.77;9.73;;;8.40;1.00;;;;;;6290201;28;20229;-56
2022/12/24 15:30:34;;;;;;;18.07;9.27;;;8.30;1.00;;;;;;6302871;28;20244;-55
2022/12/24 15:33:39;;;;;;;21.73;9.33;;;8.30;1.00;;;;;;6293324;28;23224;-55
2022/12/24 15:36:42;;;;;;;30.00;10.77;;;8.20;1.00;;;;;;6292867;28;20316;-54
2022/12/24 15:39:53;;;;;;;24.80;9.13;;;8.20;1.00;;;;;;6286209;28;20247;-56
2022/12/24 15:42:56;;;;;;;26.70;10.50;;;8.20;1.00;;;;;;6298317;28;20236;-56
2022/12/24 15:46:00;;;;;;;21.77;10.00;;;8.20;1.00;;;;;;6283228;28;20246;-55
2022/12/24 15:49:04;;;;;;;20.10;9.83;;;8.10;1.00;;;;;;6303548;28;20253;-54
2022/12/24 15:52:10;;;;;;;25.73;9.23;;;8.10;1.00;;;;;;6293860;28;20292;-55
2022/12/24 15:55:27;;;;;;;24.50;9.33;;;8.10;1.00;;;;;;6289383;28;20244;-56
2022/12/24 15:58:33;;;;;;;21.90;9.50;;;8.00;1.00;;;;;;6289949;28;20248;-56
2022/12/24 16:01:36;;;;;;;25.73;10.27;;;8.00;1.00;;;;;;6305891;28;20224;-56
2022/12/24 16:04:41;;;;;;;26.70;12.10;;;7.90;1.00;;;;;;6280135;28;20349;-55
2022/12/24 16:08:09;;;;;;;21.07;11.03;;;7.90;1.00;;;;;;6285437;28;20241;-55
2022/12/24 16:11:17;;;;;;;29.17;9.93;;;7.90;1.00;;;;;;6296611;28;20823;-56
2022/12/24 16:14:20;;;;;;;34.30;10.90;;;7.90;1.00;;;;;;6287479;28;20236;-55
2022/12/24 16:17:26;;;;;;;35.73;10.20;;;7.80;1.00;;;;;;6283691;28;20229;-56
2022/12/24 16:20:32;;;;;;;23.77;10.97;;;7.80;1.00;;;;;;6289872;28;20402;-56
2022/12/24 16:23:44;;;;;;;22.90;10.30;;;7.80;1.00;;;;;;6304038;28;20613;-56